<?xml version='1.0' encoding='UTF-8'?>
<gpx xmlns="http://www.topografix.com/GPX/1/1" creator="www.balnam.be" version="1.1" xmlns:xsi="http://www.w3.org/2001/XMLSchema-instance" xsi:schemaLocation="http://www.topografix.com/GPX/1/1 http://www.topografix.com/GPX/1/1/gpx.xsd">
<trk>
<name>lhaab1</name>
<cmt>v</cmt>
<desc>Avernas-le-Bauduin Chemin n°1 Chemin d'Avernas</desc>
<link href="https://chemins.be/avernaslebauduin/chemin/1"/><trkseg>
<trkpt lat="50.685004" lon="5.079666"><time>2026-05-02T17:08:25Z</time></trkpt>
<trkpt lat="50.687290" lon="5.079241"><time>2026-05-02T17:18:25Z</time></trkpt>
</trkseg></trk>
<trk>
<name>lhaab1</name>
<cmt>r</cmt>
<desc>Avernas-le-Bauduin Chemin n°1 Chemin d'Avernas</desc>
<link href="https://chemins.be/avernaslebauduin/chemin/1"/><trkseg>
<trkpt lat="50.687290" lon="5.079241"><time>2026-05-02T17:18:25Z</time></trkpt>
<trkpt lat="50.689849" lon="5.078748"><time>2026-05-02T17:28:25Z</time></trkpt>
<trkpt lat="50.691089" lon="5.078361"><time>2026-05-02T17:38:25Z</time></trkpt>
<trkpt lat="50.691496" lon="5.078765"><time>2026-05-02T17:48:25Z</time></trkpt>
<trkpt lat="50.691692" lon="5.079271"><time>2026-05-02T17:58:25Z</time></trkpt>
<trkpt lat="50.692203" lon="5.079524"><time>2026-05-02T18:08:25Z</time></trkpt>
<trkpt lat="50.692690" lon="5.078761"><time>2026-05-02T18:18:25Z</time></trkpt>
<trkpt lat="50.693380" lon="5.078670"><time>2026-05-02T18:28:25Z</time></trkpt>
<trkpt lat="50.694125" lon="5.078799"><time>2026-05-02T18:38:25Z</time></trkpt>
<trkpt lat="50.694509" lon="5.078606"><time>2026-05-02T18:48:25Z</time></trkpt>
<trkpt lat="50.695607" lon="5.077259"><time>2026-05-02T18:58:25Z</time></trkpt>
<trkpt lat="50.696387" lon="5.075902"><time>2026-05-02T19:08:25Z</time></trkpt>
<trkpt lat="50.698091" lon="5.075066"><time>2026-05-02T19:18:25Z</time></trkpt>
<trkpt lat="50.710314" lon="5.065195"><time>2026-05-02T19:28:25Z</time></trkpt>
<trkpt lat="50.711656" lon="5.063453"><time>2026-05-02T19:38:25Z</time></trkpt>
</trkseg></trk>
<trk>
<name>lhaab1</name>
<cmt>q</cmt>
<desc>Avernas-le-Bauduin Chemin n°1 Chemin d'Avernas</desc>
<link href="https://chemins.be/avernaslebauduin/chemin/1"/><trkseg>
<trkpt lat="50.711656" lon="5.063453"><time>2026-05-02T19:38:25Z</time></trkpt>
<trkpt lat="50.715716" lon="5.056603"><time>2026-05-02T19:48:25Z</time></trkpt>
</trkseg>
</trk>
<trk>
<name>lhaab10</name>
<cmt>v</cmt>
<desc>Avernas-le-Bauduin Chemin n°10 </desc>
<link href="https://chemins.be/avernaslebauduin/chemin/10"/><trkseg>
<trkpt lat="50.696437" lon="5.068463"><time>2026-05-02T17:08:25Z</time></trkpt>
<trkpt lat="50.697296" lon="5.067141"><time>2026-05-02T17:18:25Z</time></trkpt>
<trkpt lat="50.697808" lon="5.065800"><time>2026-05-02T17:28:25Z</time></trkpt>
<trkpt lat="50.698596" lon="5.063254"><time>2026-05-02T17:38:25Z</time></trkpt>
<trkpt lat="50.699008" lon="5.060652"><time>2026-05-02T17:48:25Z</time></trkpt>
</trkseg>
</trk>
<trk>
<name>lhaab13</name>
<cmt>s</cmt>
<desc>Avernas-le-Bauduin Chemin n°13 </desc>
<link href="https://chemins.be/avernaslebauduin/chemin/13"/><trkseg>
<trkpt lat="50.683619" lon="5.066302"><time>2026-05-02T17:08:25Z</time></trkpt>
<trkpt lat="50.682496" lon="5.067724"><time>2026-05-02T17:18:25Z</time></trkpt>
</trkseg>
</trk>
<trk>
<name>lhaab14</name>
<cmt>r</cmt>
<desc>Avernas-le-Bauduin Sentier n°14 </desc>
<link href="https://chemins.be/avernaslebauduin/sentier/14"/><trkseg>
<trkpt lat="50.693784" lon="5.076561"><time>2026-05-02T17:08:25Z</time></trkpt>
<trkpt lat="50.693121" lon="5.075423"><time>2026-05-02T17:18:25Z</time></trkpt>
<trkpt lat="50.692356" lon="5.074104"><time>2026-05-02T17:28:25Z</time></trkpt>
<trkpt lat="50.691476" lon="5.071955"><time>2026-05-02T17:38:25Z</time></trkpt>
</trkseg></trk>
<trk>
<name>lhaab14</name>
<cmt>v</cmt>
<desc>Avernas-le-Bauduin Sentier n°14 </desc>
<link href="https://chemins.be/avernaslebauduin/sentier/14"/><trkseg>
<trkpt lat="50.691476" lon="5.071955"><time>2026-05-02T17:38:25Z</time></trkpt>
<trkpt lat="50.691041" lon="5.071247"><time>2026-05-02T17:48:25Z</time></trkpt>
<trkpt lat="50.689994" lon="5.069198"><time>2026-05-02T17:58:25Z</time></trkpt>
</trkseg></trk>
<trk>
<name>lhaab14</name>
<cmt>q</cmt>
<desc>Avernas-le-Bauduin Sentier n°14 </desc>
<link href="https://chemins.be/avernaslebauduin/sentier/14"/><trkseg>
<trkpt lat="50.689994" lon="5.069198"><time>2026-05-02T17:58:25Z</time></trkpt>
<trkpt lat="50.686793" lon="5.068436"><time>2026-05-02T18:08:25Z</time></trkpt>
<trkpt lat="50.683829" lon="5.066612"><time>2026-05-02T18:18:25Z</time></trkpt>
</trkseg>
</trk>
<trk>
<name>lhaab15</name>
<cmt>r</cmt>
<desc>Avernas-le-Bauduin Sentier n°15 </desc>
<link href="https://chemins.be/avernaslebauduin/sentier/15"/><trkseg>
<trkpt lat="50.690613" lon="5.075872"><time>2026-05-02T17:08:25Z</time></trkpt>
<trkpt lat="50.691472" lon="5.072027"><time>2026-05-02T17:18:25Z</time></trkpt>
</trkseg></trk>
<trk>
<name>lhaab15</name>
<cmt>q</cmt>
<desc>Avernas-le-Bauduin Sentier n°15 </desc>
<link href="https://chemins.be/avernaslebauduin/sentier/15"/><trkseg>
<trkpt lat="50.691472" lon="5.072027"><time>2026-05-02T17:18:25Z</time></trkpt>
<trkpt lat="50.692255" lon="5.065058"><time>2026-05-02T17:28:25Z</time></trkpt>
<trkpt lat="50.692026" lon="5.063667"><time>2026-05-02T17:38:25Z</time></trkpt>
<trkpt lat="50.691727" lon="5.062938"><time>2026-05-02T17:48:25Z</time></trkpt>
<trkpt lat="50.691510" lon="5.061401"><time>2026-05-02T17:58:25Z</time></trkpt>
<trkpt lat="50.691287" lon="5.060663"><time>2026-05-02T18:08:25Z</time></trkpt>
</trkseg>
</trk>
<trk>
<name>lhaab16</name>
<cmt>q</cmt>
<desc>Avernas-le-Bauduin Sentier n°16 </desc>
<link href="https://chemins.be/avernaslebauduin/sentier/16"/><trkseg>
<trkpt lat="50.703810" lon="5.065706"><time>2026-05-02T17:08:25Z</time></trkpt>
<trkpt lat="50.705516" lon="5.054702"><time>2026-05-02T17:18:25Z</time></trkpt>
</trkseg>
</trk>
<trk>
<name>lhaab18</name>
<cmt>q</cmt>
<desc>Avernas-le-Bauduin Sentier n°18 </desc>
<link href="https://chemins.be/avernaslebauduin/sentier/18"/><trkseg>
<trkpt lat="50.695391" lon="5.078908"><time>2026-05-02T17:08:25Z</time></trkpt>
<trkpt lat="50.696104" lon="5.080517"><time>2026-05-02T17:18:25Z</time></trkpt>
<trkpt lat="50.696041" lon="5.082000"><time>2026-05-02T17:28:25Z</time></trkpt>
<trkpt lat="50.695948" lon="5.084197"><time>2026-05-02T17:38:25Z</time></trkpt>
<trkpt lat="50.694432" lon="5.085699"><time>2026-05-02T17:48:25Z</time></trkpt>
</trkseg>
</trk>
<trk>
<name>lhaab19</name>
<cmt>q</cmt>
<desc>Avernas-le-Bauduin Sentier n°19 </desc>
<link href="https://chemins.be/avernaslebauduin/sentier/19"/><trkseg>
<trkpt lat="50.694412" lon="5.080764"><time>2026-05-02T17:08:25Z</time></trkpt>
<trkpt lat="50.694425" lon="5.081923"><time>2026-05-02T17:18:25Z</time></trkpt>
<trkpt lat="50.694466" lon="5.085602"><time>2026-05-02T17:28:25Z</time></trkpt>
</trkseg>
</trk>
<trk>
<name>lhaab2</name>
<cmt>r</cmt>
<desc>Avernas-le-Bauduin Chemin n°2 </desc>
<link href="https://chemins.be/avernaslebauduin/chemin/2"/><trkseg>
<trkpt lat="50.689879" lon="5.078854"><time>2026-05-02T17:08:25Z</time></trkpt>
<trkpt lat="50.688900" lon="5.081532"><time>2026-05-02T17:18:25Z</time></trkpt>
</trkseg></trk>
<trk>
<name>lhaab2</name>
<cmt>s</cmt>
<desc>Avernas-le-Bauduin Chemin n°2 </desc>
<link href="https://chemins.be/avernaslebauduin/chemin/2"/><trkseg>
<trkpt lat="50.688900" lon="5.081532"><time>2026-05-02T17:18:25Z</time></trkpt>
<trkpt lat="50.686997" lon="5.084619"><time>2026-05-02T17:28:25Z</time></trkpt>
<trkpt lat="50.686192" lon="5.085451"><time>2026-05-02T17:38:25Z</time></trkpt>
</trkseg>
</trk>
<trk>
<name>lhaab20</name>
<cmt>s</cmt>
<desc>Avernas-le-Bauduin Sentier n°20 </desc>
<link href="https://chemins.be/avernaslebauduin/sentier/20"/><trkseg>
<trkpt lat="50.696138" lon="5.084808"><time>2026-05-02T17:08:25Z</time></trkpt>
<trkpt lat="50.697722" lon="5.085205"><time>2026-05-02T17:18:25Z</time></trkpt>
</trkseg>
</trk>
<trk>
<name>lhaab21</name>
<cmt>q</cmt>
<desc>Avernas-le-Bauduin Sentier n°21 </desc>
<link href="https://chemins.be/avernaslebauduin/sentier/21"/><trkseg>
<trkpt lat="50.696110" lon="5.080524"><time>2026-05-02T17:08:25Z</time></trkpt>
<trkpt lat="50.697094" lon="5.079512"><time>2026-05-02T17:18:25Z</time></trkpt>
<trkpt lat="50.696925" lon="5.079306"><time>2026-05-02T17:28:25Z</time></trkpt>
<trkpt lat="50.697110" lon="5.077160"><time>2026-05-02T17:38:25Z</time></trkpt>
<trkpt lat="50.697610" lon="5.075297"><time>2026-05-02T17:48:25Z</time></trkpt>
<trkpt lat="50.697344" lon="5.075014"><time>2026-05-02T17:58:25Z</time></trkpt>
<trkpt lat="50.697219" lon="5.074508"><time>2026-05-02T18:08:25Z</time></trkpt>
<trkpt lat="50.697230" lon="5.074018"><time>2026-05-02T18:18:25Z</time></trkpt>
<trkpt lat="50.696621" lon="5.070087"><time>2026-05-02T18:28:25Z</time></trkpt>
</trkseg>
</trk>
<trk>
<name>lhaab22</name>
<cmt>v</cmt>
<desc>Avernas-le-Bauduin Sentier n°22 </desc>
<link href="https://chemins.be/avernaslebauduin/sentier/22"/><trkseg>
<trkpt lat="50.691849" lon="5.080405"><time>2026-05-02T17:08:25Z</time></trkpt>
<trkpt lat="50.692186" lon="5.080270"><time>2026-05-02T17:18:25Z</time></trkpt>
<trkpt lat="50.692403" lon="5.080579"><time>2026-05-02T17:28:25Z</time></trkpt>
<trkpt lat="50.692560" lon="5.081062"><time>2026-05-02T17:38:25Z</time></trkpt>
<trkpt lat="50.692511" lon="5.081231"><time>2026-05-02T17:48:25Z</time></trkpt>
<trkpt lat="50.692627" lon="5.081956"><time>2026-05-02T17:58:25Z</time></trkpt>
<trkpt lat="50.693184" lon="5.083756"><time>2026-05-02T18:08:25Z</time></trkpt>
<trkpt lat="50.694247" lon="5.085074"><time>2026-05-02T18:18:25Z</time></trkpt>
</trkseg>
</trk>
<trk>
<name>lhaab24</name>
<cmt>q</cmt>
<desc>Avernas-le-Bauduin Sentier n°24 </desc>
<link href="https://chemins.be/avernaslebauduin/sentier/24"/><trkseg>
<trkpt lat="50.693125" lon="5.075452"><time>2026-05-02T17:08:25Z</time></trkpt>
<trkpt lat="50.690662" lon="5.075881"><time>2026-05-02T17:18:25Z</time></trkpt>
<trkpt lat="50.689737" lon="5.075666"><time>2026-05-02T17:28:25Z</time></trkpt>
<trkpt lat="50.688367" lon="5.076851"><time>2026-05-02T17:38:25Z</time></trkpt>
<trkpt lat="50.685964" lon="5.076902"><time>2026-05-02T17:48:25Z</time></trkpt>
<trkpt lat="50.684017" lon="5.074739"><time>2026-05-02T17:58:25Z</time></trkpt>
<trkpt lat="50.682837" lon="5.073057"><time>2026-05-02T18:08:25Z</time></trkpt>
</trkseg>
</trk>
<trk>
<name>lhaab25</name>
<cmt>q</cmt>
<desc>Avernas-le-Bauduin Sentier n°25 </desc>
<link href="https://chemins.be/avernaslebauduin/sentier/25"/><trkseg>
<trkpt lat="50.690591" lon="5.075864"><time>2026-05-02T17:08:25Z</time></trkpt>
<trkpt lat="50.689656" lon="5.075023"><time>2026-05-02T17:18:25Z</time></trkpt>
<trkpt lat="50.686817" lon="5.068439"><time>2026-05-02T17:28:25Z</time></trkpt>
</trkseg>
</trk>
<trk>
<name>lhaab26</name>
<cmt>q</cmt>
<desc>Avernas-le-Bauduin Sentier n°26 </desc>
<link href="https://chemins.be/avernaslebauduin/sentier/26"/><trkseg>
<trkpt lat="50.689716" lon="5.078714"><time>2026-05-02T17:08:25Z</time></trkpt>
<trkpt lat="50.689716" lon="5.078511"><time>2026-05-02T17:18:25Z</time></trkpt>
<trkpt lat="50.690830" lon="5.076279"><time>2026-05-02T17:28:25Z</time></trkpt>
<trkpt lat="50.691156" lon="5.075839"><time>2026-05-02T17:38:25Z</time></trkpt>
</trkseg>
</trk>
<trk>
<name>lhaab27</name>
<cmt>q</cmt>
<desc>Avernas-le-Bauduin Sentier n°27 </desc>
<link href="https://chemins.be/avernaslebauduin/sentier/27"/><trkseg>
<trkpt lat="50.693365" lon="5.078629"><time>2026-05-02T17:08:25Z</time></trkpt>
<trkpt lat="50.693223" lon="5.078157"><time>2026-05-02T17:18:25Z</time></trkpt>
<trkpt lat="50.692033" lon="5.077931"><time>2026-05-02T17:28:25Z</time></trkpt>
<trkpt lat="50.691897" lon="5.078189"><time>2026-05-02T17:38:25Z</time></trkpt>
<trkpt lat="50.691693" lon="5.078103"><time>2026-05-02T17:48:25Z</time></trkpt>
<trkpt lat="50.691639" lon="5.078210"><time>2026-05-02T17:58:25Z</time></trkpt>
<trkpt lat="50.691224" lon="5.077931"><time>2026-05-02T18:08:25Z</time></trkpt>
<trkpt lat="50.690524" lon="5.076815"><time>2026-05-02T18:18:25Z</time></trkpt>
</trkseg>
</trk>
<trk>
<name>lhaab28</name>
<cmt>r</cmt>
<desc>Avernas-le-Bauduin Chemin n°28 </desc>
<link href="https://chemins.be/avernaslebauduin/chemin/28"/><trkseg>
<trkpt lat="50.691634" lon="5.079276"><time>2026-05-02T17:08:25Z</time></trkpt>
<trkpt lat="50.691949" lon="5.080741"><time>2026-05-02T17:18:25Z</time></trkpt>
</trkseg></trk>
<trk>
<name>lhaab28</name>
<cmt>b</cmt>
<desc>Avernas-le-Bauduin Chemin n°28 </desc>
<link href="https://chemins.be/avernaslebauduin/chemin/28"/><trkseg>
<trkpt lat="50.691949" lon="5.080741"><time>2026-05-02T17:18:25Z</time></trkpt>
<trkpt lat="50.692069" lon="5.080960"><time>2026-05-02T17:28:25Z</time></trkpt>
<trkpt lat="50.691886" lon="5.081228"><time>2026-05-02T17:38:25Z</time></trkpt>
<trkpt lat="50.691884" lon="5.081432"><time>2026-05-02T17:48:25Z</time></trkpt>
</trkseg>
</trk>
<trk>
<name>lhaab3</name>
<cmt>v</cmt>
<desc>Avernas-le-Bauduin Chemin n°3 </desc>
<link href="https://chemins.be/avernaslebauduin/chemin/3"/><trkseg>
<trkpt lat="50.698427" lon="5.074248"><time>2026-05-02T17:08:25Z</time></trkpt>
<trkpt lat="50.698926" lon="5.073164"><time>2026-05-02T17:18:25Z</time></trkpt>
<trkpt lat="50.699411" lon="5.072411"><time>2026-05-02T17:28:25Z</time></trkpt>
<trkpt lat="50.701618" lon="5.069201"><time>2026-05-02T17:38:25Z</time></trkpt>
<trkpt lat="50.703830" lon="5.065579"><time>2026-05-02T17:48:25Z</time></trkpt>
<trkpt lat="50.705178" lon="5.063725"><time>2026-05-02T17:58:25Z</time></trkpt>
<trkpt lat="50.706005" lon="5.062043"><time>2026-05-02T18:08:25Z</time></trkpt>
<trkpt lat="50.706896" lon="5.060034"><time>2026-05-02T18:18:25Z</time></trkpt>
<trkpt lat="50.707749" lon="5.057640"><time>2026-05-02T18:28:25Z</time></trkpt>
</trkseg>
</trk>
<trk>
<name>lhaab30</name>
<cmt>q</cmt>
<desc>Avernas-le-Bauduin Sentier n°30 </desc>
<link href="https://chemins.be/avernaslebauduin/sentier/30"/><trkseg>
<trkpt lat="50.695916" lon="5.072692"><time>2026-05-02T17:08:25Z</time></trkpt>
<trkpt lat="50.696199" lon="5.072911"><time>2026-05-02T17:18:25Z</time></trkpt>
<trkpt lat="50.696990" lon="5.072688"><time>2026-05-02T17:28:25Z</time></trkpt>
<trkpt lat="50.697211" lon="5.074053"><time>2026-05-02T17:38:25Z</time></trkpt>
<trkpt lat="50.698920" lon="5.073160"><time>2026-05-02T17:48:25Z</time></trkpt>
</trkseg>
</trk>
<trk>
<name>lhaab5</name>
<cmt>r</cmt>
<desc>Avernas-le-Bauduin Chemin n°5 Rue des Prés</desc>
<link href="https://chemins.be/avernaslebauduin/chemin/5"/><trkseg>
<trkpt lat="50.694962" lon="5.073329"><time>2026-05-02T17:08:25Z</time></trkpt>
<trkpt lat="50.694831" lon="5.072718"><time>2026-05-02T17:18:25Z</time></trkpt>
<trkpt lat="50.694878" lon="5.072280"><time>2026-05-02T17:28:25Z</time></trkpt>
</trkseg></trk>
<trk>
<name>lhaab5</name>
<cmt>v</cmt>
<desc>Avernas-le-Bauduin Chemin n°5 Rue des Prés</desc>
<link href="https://chemins.be/avernaslebauduin/chemin/5"/><trkseg>
<trkpt lat="50.694878" lon="5.072280"><time>2026-05-02T17:28:25Z</time></trkpt>
<trkpt lat="50.695054" lon="5.071448"><time>2026-05-02T17:38:25Z</time></trkpt>
<trkpt lat="50.694785" lon="5.069844"><time>2026-05-02T17:48:25Z</time></trkpt>
<trkpt lat="50.694190" lon="5.068661"><time>2026-05-02T17:58:25Z</time></trkpt>
<trkpt lat="50.694158" lon="5.067910"><time>2026-05-02T18:08:25Z</time></trkpt>
<trkpt lat="50.694035" lon="5.067540"><time>2026-05-02T18:18:25Z</time></trkpt>
<trkpt lat="50.693716" lon="5.066616"><time>2026-05-02T18:28:25Z</time></trkpt>
<trkpt lat="50.692420" lon="5.062350"><time>2026-05-02T18:38:25Z</time></trkpt>
<trkpt lat="50.692417" lon="5.061430"><time>2026-05-02T18:48:25Z</time></trkpt>
</trkseg>
</trk>
<trk>
<name>lhaab6</name>
<cmt>s</cmt>
<desc>Avernas-le-Bauduin Chemin n°6 </desc>
<link href="https://chemins.be/avernaslebauduin/chemin/6"/><trkseg>
<trkpt lat="50.700832" lon="5.081990"><time>2026-05-02T17:08:25Z</time></trkpt>
<trkpt lat="50.703766" lon="5.082482"><time>2026-05-02T17:18:25Z</time></trkpt>
<trkpt lat="50.704338" lon="5.082803"><time>2026-05-02T17:28:25Z</time></trkpt>
</trkseg>
</trk>
<trk>
<name>lhaab8</name>
<cmt>v</cmt>
<desc>Avernas-le-Bauduin Chemin n°8 </desc>
<link href="https://chemins.be/avernaslebauduin/chemin/8"/><trkseg>
<trkpt lat="50.709942" lon="5.067693"><time>2026-05-02T17:08:25Z</time></trkpt>
<trkpt lat="50.708986" lon="5.066262"><time>2026-05-02T17:18:25Z</time></trkpt>
<trkpt lat="50.706793" lon="5.063425"><time>2026-05-02T17:28:25Z</time></trkpt>
<trkpt lat="50.705993" lon="5.062074"><time>2026-05-02T17:38:25Z</time></trkpt>
<trkpt lat="50.705537" lon="5.061305"><time>2026-05-02T17:48:25Z</time></trkpt>
<trkpt lat="50.704858" lon="5.058850"><time>2026-05-02T17:58:25Z</time></trkpt>
<trkpt lat="50.703977" lon="5.056533"><time>2026-05-02T18:08:25Z</time></trkpt>
</trkseg>
</trk>
<trk>
<name>lhaab9</name>
<cmt>s</cmt>
<desc>Avernas-le-Bauduin Chemin n°9 </desc>
<link href="https://chemins.be/avernaslebauduin/chemin/9"/><trkseg>
<trkpt lat="50.710606" lon="5.058946"><time>2026-05-02T17:08:25Z</time></trkpt>
<trkpt lat="50.710361" lon="5.060576"><time>2026-05-02T17:18:25Z</time></trkpt>
<trkpt lat="50.710497" lon="5.063357"><time>2026-05-02T17:28:25Z</time></trkpt>
<trkpt lat="50.710299" lon="5.065185"><time>2026-05-02T17:38:25Z</time></trkpt>
</trkseg></trk>
<trk>
<name>lhaab9</name>
<cmt>q</cmt>
<desc>Avernas-le-Bauduin Chemin n°9 </desc>
<link href="https://chemins.be/avernaslebauduin/chemin/9"/><trkseg>
<trkpt lat="50.710299" lon="5.065185"><time>2026-05-02T17:38:25Z</time></trkpt>
<trkpt lat="50.710187" lon="5.066215"><time>2026-05-02T17:48:25Z</time></trkpt>
<trkpt lat="50.709935" lon="5.067751"><time>2026-05-02T17:58:25Z</time></trkpt>
<trkpt lat="50.709221" lon="5.074983"><time>2026-05-02T18:08:25Z</time></trkpt>
<trkpt lat="50.708033" lon="5.081786"><time>2026-05-02T18:18:25Z</time></trkpt>
</trkseg>
</trk>
<trk>
<name>lhaabi1</name>
<cmt>r</cmt>
<desc>Avernas-le-Bauduin Chemin n°i1 </desc>
<link href="https://chemins.be/avernaslebauduin/chemin/i1"/><trkseg>
<trkpt lat="50.711843" lon="5.061877"><time>2026-05-02T17:08:25Z</time></trkpt>
<trkpt lat="50.712346" lon="5.057157"><time>2026-05-02T17:18:25Z</time></trkpt>
</trkseg>
</trk>
<trk>
<name>lhaabi2</name>
<cmt>v</cmt>
<desc>Avernas-le-Bauduin Chemin n°i2 </desc>
<link href="https://chemins.be/avernaslebauduin/chemin/i2"/><trkseg>
<trkpt lat="50.686748" lon="5.082088"><time>2026-05-02T17:08:25Z</time></trkpt>
<trkpt lat="50.686030" lon="5.083348"><time>2026-05-02T17:18:25Z</time></trkpt>
</trkseg>
</trk>
<trk>
<name>lhaabL127</name>
<cmt>v</cmt>
<desc>Avernas-le-Bauduin Chemin n°L127 Ravel L127</desc>
<link href="https://chemins.be/avernaslebauduin/chemin/L127"/><trkseg>
<trkpt lat="50.701140" lon="5.084916"><time>2026-05-02T17:08:25Z</time></trkpt>
<trkpt lat="50.702903" lon="5.081729"><time>2026-05-02T17:18:25Z</time></trkpt>
<trkpt lat="50.703999" lon="5.080429"><time>2026-05-02T17:28:25Z</time></trkpt>
<trkpt lat="50.706881" lon="5.079638"><time>2026-05-02T17:38:25Z</time></trkpt>
<trkpt lat="50.708523" lon="5.078558"><time>2026-05-02T17:48:25Z</time></trkpt>
</trkseg>
</trk>
</gpx>